Hovedside
METAR-TAF:

METAR-TAF

Lufthavner :

Weno, Mikronesia

breddegrad: 07-28N, lengdegrad: 151-51E, høyde over havet: 3 m

Gjeldene værobservasjon

Denne rapporten ble laget for 50 minutter siden, klokken 14:54 UTC
Vind 4 kt fra skiftende retning
Temperatur 28°C
Luftfuktighet 89%
Trykk 1010 hPa
Sikt: 24.1 km
Få skyer i en høyde av 1400 ft
Brutte skyer i en høyde av 12000 ft
Overskyet i en høyde av 28000 ft

METAR: PTKK 181454Z VRB04KT 15SM FEW014 BKN120 OVC280 28/26 A2983 RMK SLP101 8/178 T02780259 57017

Tid: 01:44 (15:44 UTC)

Varsel

Denne rapporten ble laget for 4 timer og 24 minutter siden, klokken 11:20 UTC
Varsel gyldig fra 18. klokken 12 UTC til 19. klokken 12 UTC
Vind 11 kt fra Nordøst
Sikt: 10 km
Få skyer i en høyde av 1400 ft
Spredte skyer i en høyde av 4000 ft
regnbyger i nærheten

TAF: PTKK 181120Z 1812/1912 05011KT P6SM VCSH FEW014 SCT040

Værobservasjoner og værvarsel for over 4000 flyplasser (METAR- og TAF-rapporter).

Tilgjengelige stasjoner er representert av de røde og gule prikkene på kartet.

Hold musepekeren over prikken for å se navnet på stasjonen.

Klikk så for å se værobservasjoner og -varsler.

For å forandre kartet kan du klikke på den grønne knappen med svart kryss for å zoome inn, på den grønne knappen med strek for å zoome ut, eller på de grønne pilene for å se tilstøtende kart.


METAR-TAF: